createdAt,value
2018-12-26T12:17:47.986Z,24.10
2018-12-26T12:20:17.638Z,18.10
2018-12-26T12:22:47.286Z,14.20
2018-12-26T12:25:16.924Z,11.70
2018-12-26T12:27:46.533Z,9.90
2018-12-26T12:30:16.170Z,8.60
2018-12-26T12:32:45.850Z,7.60
2018-12-26T12:35:15.541Z,7.10
2018-12-26T12:37:45.151Z,6.70
2018-12-26T12:40:14.780Z,6.40
2018-12-26T12:42:44.777Z,6.30
2018-12-26T12:45:14.402Z,6.10
2018-12-26T12:47:44.094Z,5.80
2018-12-26T12:50:13.727Z,5.70
2018-12-26T12:52:43.394Z,5.60
2018-12-26T12:55:13.057Z,5.60
2018-12-26T12:57:42.822Z,5.70
2018-12-26T13:00:12.493Z,5.90
2018-12-26T13:02:42.192Z,6.00
2018-12-26T13:05:11.853Z,6.10
2018-12-26T13:07:41.528Z,6.20
2018-12-26T13:10:11.223Z,6.50
2018-12-26T13:12:40.960Z,6.70
2018-12-26T13:15:10.611Z,6.80
2018-12-26T13:17:40.320Z,6.80
2018-12-26T13:20:10.238Z,6.90
2018-12-26T13:22:39.855Z,6.90
2018-12-26T13:25:09.544Z,7.00
2018-12-26T13:27:39.184Z,7.00
2018-12-26T13:30:10.108Z,7.00
2018-12-26T13:32:39.769Z,7.00
2018-12-26T13:35:09.421Z,7.00
2018-12-26T13:37:45.110Z,7.10
2018-12-26T13:40:14.770Z,7.20
2018-12-26T13:42:44.431Z,7.30
2018-12-26T13:45:14.158Z,7.30
2018-12-26T13:47:43.817Z,7.30
2018-12-26T13:50:13.476Z,7.30
2018-12-26T13:52:43.156Z,7.20
2018-12-26T13:55:12.880Z,7.10
2018-12-26T13:57:42.490Z,7.00
2018-12-26T14:00:12.679Z,6.90
2018-12-26T14:02:42.321Z,6.80
2018-12-26T14:05:12.008Z,6.70
2018-12-26T14:07:41.691Z,6.60
2018-12-26T14:10:11.736Z,6.60
2018-12-26T14:12:41.411Z,6.50
2018-12-26T14:15:11.575Z,6.40
2018-12-26T14:17:41.228Z,6.30
2018-12-26T14:20:10.884Z,6.20
2018-12-26T14:22:40.598Z,6.20
2018-12-26T14:25:10.794Z,6.10
2018-12-26T14:27:40.468Z,6.10
2018-12-26T14:30:11.370Z,6.10
2018-12-26T14:32:41.323Z,6.10
2018-12-26T14:35:11.059Z,6.00
2018-12-26T14:37:40.711Z,6.00
2018-12-26T14:40:10.794Z,5.90
2018-12-26T14:42:40.415Z,5.80
2018-12-26T14:45:10.127Z,5.70
2018-12-26T14:47:39.872Z,5.70
2018-12-26T14:50:09.575Z,5.70
2018-12-26T14:52:39.256Z,5.60
2018-12-26T14:55:08.934Z,5.50
2018-12-26T14:57:38.605Z,5.50
2018-12-26T15:00:08.808Z,5.40
2018-12-26T15:02:38.528Z,5.40
2018-12-26T15:05:08.216Z,5.30
2018-12-26T15:07:37.905Z,5.30
2018-12-26T15:10:08.005Z,5.30
2018-12-26T15:12:37.667Z,5.30
2018-12-26T15:15:07.403Z,5.20
2018-12-26T15:17:37.067Z,5.10
2018-12-26T15:20:07.078Z,5.10
2018-12-26T15:22:36.777Z,5.00
2018-12-26T15:25:06.442Z,5.00
2018-12-26T15:27:36.097Z,5.00
2018-12-26T15:30:05.998Z,5.00
2018-12-26T15:32:35.671Z,4.90
2018-12-26T15:35:05.338Z,4.80
2018-12-26T15:37:34.988Z,4.80
2018-12-26T15:40:05.154Z,4.60
2018-12-26T15:42:34.802Z,4.50
2018-12-26T15:45:04.628Z,4.50
2018-12-26T15:47:34.263Z,4.50
2018-12-26T15:50:04.022Z,4.50
2018-12-26T15:52:33.748Z,4.50
2018-12-26T15:55:03.368Z,4.50
2018-12-26T15:57:33.025Z,4.40
2018-12-26T16:00:02.731Z,4.40
2018-12-26T16:02:32.402Z,4.30
2018-12-26T16:05:02.078Z,4.30
2018-12-26T16:07:31.710Z,4.30
2018-12-26T16:10:01.367Z,4.30
2018-12-26T16:12:30.999Z,4.30
2018-12-26T16:15:00.662Z,4.30
2018-12-26T16:17:30.460Z,4.30
2018-12-26T16:20:00.082Z,4.10
2018-12-26T16:22:29.839Z,4.10
2018-12-26T16:24:59.508Z,4.10
2018-12-26T16:27:29.256Z,4.10
2018-12-26T16:29:58.922Z,4.20
2018-12-26T16:32:28.608Z,4.20
2018-12-26T16:34:58.277Z,4.20
2018-12-26T16:37:27.957Z,4.20
2018-12-26T16:39:57.609Z,4.10
2018-12-26T16:42:27.247Z,3.90
2018-12-26T16:44:56.984Z,3.80
2018-12-26T16:47:26.640Z,3.70
2018-12-26T16:49:56.381Z,3.60
2018-12-26T16:52:26.044Z,3.50
2018-12-26T16:54:55.695Z,3.40
2018-12-26T16:57:25.357Z,3.40
2018-12-26T16:59:55.005Z,3.40
2018-12-26T17:02:24.673Z,3.40
2018-12-26T17:04:58.442Z,3.50
2018-12-26T17:07:55.468Z,3.60
2018-12-26T17:13:39.505Z,3.70
2018-12-26T17:16:09.451Z,3.70
2018-12-26T17:19:00.166Z,3.80
2018-12-26T17:21:33.080Z,3.80
2018-12-26T17:24:04.109Z,3.70
2018-12-26T17:26:33.765Z,3.50
2018-12-26T17:29:03.964Z,3.40
2018-12-26T17:31:33.938Z,3.40
2018-12-26T17:34:03.618Z,3.20
2018-12-26T17:36:33.658Z,3.20
2018-12-26T17:39:05.360Z,3.20
2018-12-26T17:41:35.069Z,3.30
2018-12-26T17:44:17.310Z,3.30
2018-12-26T17:46:47.047Z,3.20
2018-12-26T17:49:16.818Z,3.10
2018-12-26T17:51:47.654Z,3.00
2018-12-26T17:54:55.005Z,3.00
2018-12-26T17:57:38.160Z,2.90
2018-12-26T18:00:51.364Z,2.70
2018-12-26T18:03:22.026Z,2.50
2018-12-26T18:05:52.044Z,2.50
2018-12-26T18:08:21.679Z,2.40
2018-12-26T18:10:51.365Z,2.40
2018-12-26T18:13:21.081Z,2.40
2018-12-26T18:15:50.747Z,2.30
2018-12-26T18:18:20.428Z,2.30
2018-12-26T18:20:57.336Z,2.40
2018-12-26T18:23:32.471Z,2.30
2018-12-26T18:26:26.196Z,2.30
2018-12-26T18:29:17.272Z,2.30
2018-12-26T18:32:06.838Z,2.20
2018-12-26T18:34:56.341Z,2.10
2018-12-26T18:37:45.012Z,2.00
2018-12-26T18:40:20.233Z,1.90
2018-12-26T18:42:50.086Z,1.90
2018-12-26T18:45:19.689Z,1.90
2018-12-26T18:47:49.358Z,1.90
2018-12-26T18:50:19.096Z,1.90
2018-12-26T18:52:48.747Z,1.90
2018-12-26T18:55:18.424Z,1.90
2018-12-26T18:57:48.082Z,1.90
2018-12-26T19:00:17.740Z,1.90
2018-12-26T19:02:47.374Z,1.90
2018-12-26T19:05:17.081Z,1.90
2018-12-26T19:07:46.808Z,1.80
2018-12-26T19:10:16.451Z,1.80
2018-12-26T19:12:46.167Z,1.80
2018-12-26T19:15:15.849Z,1.80
2018-12-26T19:17:45.559Z,1.70
2018-12-26T19:20:15.243Z,1.70
2018-12-26T19:22:44.947Z,1.70
2018-12-26T19:25:14.615Z,1.60
2018-12-26T19:27:46.643Z,1.60
2018-12-26T19:30:16.424Z,1.70
2018-12-26T19:32:46.260Z,1.80
2018-12-26T19:35:22.328Z,1.80
2018-12-26T19:37:54.145Z,1.70
2018-12-26T19:40:30.558Z,1.60
2018-12-26T19:43:02.374Z,1.50
2018-12-26T19:45:35.044Z,1.50
2018-12-26T19:48:14.227Z,1.40
2018-12-26T19:50:49.036Z,1.40
2018-12-26T19:53:18.792Z,1.30
2018-12-26T19:55:50.539Z,1.40
2018-12-26T19:58:22.848Z,1.40
2018-12-26T20:00:52.583Z,1.40
2018-12-26T20:03:30.145Z,1.30
2018-12-26T20:06:04.349Z,1.30
2018-12-26T20:08:43.349Z,1.30
2018-12-26T20:11:13.016Z,1.40
2018-12-26T20:13:42.762Z,1.30
2018-12-26T20:16:12.407Z,1.20
2018-12-26T20:18:42.067Z,1.30
2018-12-26T20:21:11.936Z,1.40
2018-12-26T20:23:41.593Z,1.50
2018-12-26T20:26:13.398Z,1.50
2018-12-26T20:28:44.491Z,1.50
2018-12-26T20:31:14.225Z,1.50
2018-12-26T20:33:43.921Z,1.30
2018-12-26T20:36:15.694Z,1.20
2018-12-26T20:38:46.609Z,1.10
2018-12-26T20:41:16.275Z,1.00
2018-12-26T20:43:47.755Z,0.90
2018-12-26T20:46:17.780Z,0.80
2018-12-26T20:48:47.887Z,0.90
2018-12-26T20:51:18.077Z,1.10
2018-12-26T20:53:49.982Z,1.20
2018-12-26T20:56:20.689Z,1.20
2018-12-26T20:58:50.385Z,1.10
2018-12-26T21:01:20.401Z,1.10
2018-12-26T21:03:50.075Z,1.00
2018-12-26T21:06:20.608Z,1.00
2018-12-26T21:08:50.265Z,0.90
2018-12-26T21:11:19.902Z,0.90
2018-12-26T21:13:49.674Z,0.90
2018-12-26T21:16:19.436Z,0.90
2018-12-26T21:18:49.034Z,0.90
2018-12-26T21:21:18.784Z,1.00
2018-12-26T21:23:48.475Z,1.00
2018-12-26T21:26:18.112Z,0.90
2018-12-26T21:28:47.773Z,0.90
2018-12-26T21:31:17.438Z,0.90
2018-12-26T21:33:47.639Z,0.90
2018-12-26T21:36:17.478Z,0.90
2018-12-26T21:38:47.614Z,0.70
2018-12-26T21:41:20.377Z,0.60
2018-12-26T21:43:50.008Z,0.40
2018-12-26T21:46:19.776Z,0.30
2018-12-26T21:48:51.098Z,0.20
2018-12-26T21:51:22.500Z,0.10
2018-12-26T21:53:52.182Z,0.10
2018-12-26T21:56:23.546Z,0.10
2018-12-26T21:58:54.400Z,0.10
2018-12-26T22:01:24.299Z,0.10
2018-12-26T22:03:54.010Z,0.10
2018-12-26T22:06:23.668Z,0.00
2018-12-26T22:08:53.462Z,-0.10
2018-12-26T22:11:23.279Z,-0.10
2018-12-26T22:13:56.777Z,-0.10
2018-12-26T22:16:26.477Z,0.00
2018-12-26T22:18:56.124Z,0.10
2018-12-26T22:21:25.850Z,0.00
2018-12-26T22:23:58.986Z,-0.10
2018-12-26T22:26:29.066Z,-0.20
2018-12-26T22:29:06.422Z,-0.20
2018-12-26T22:31:36.596Z,-0.20
2018-12-26T22:34:06.264Z,-0.30
2018-12-26T22:36:35.903Z,-0.20
2018-12-26T22:39:07.412Z,-0.10
2018-12-26T22:41:39.737Z,0.00
2018-12-26T22:44:10.973Z,-0.10
2018-12-26T22:46:40.959Z,-0.10
2018-12-26T22:49:10.645Z,-0.10
2018-12-26T22:51:44.682Z,-0.20
2018-12-26T22:54:11.674Z,-0.20
2018-12-26T22:56:41.945Z,-0.20
2018-12-26T22:59:11.710Z,-0.20
2018-12-26T23:01:41.909Z,-0.10
2018-12-26T23:04:11.579Z,-0.10
2018-12-26T23:06:41.393Z,-0.10
2018-12-26T23:09:11.103Z,-0.20
2018-12-26T23:11:40.802Z,-0.30
2018-12-26T23:14:12.936Z,-0.30
2018-12-26T23:16:42.704Z,-0.30
2018-12-26T23:19:12.336Z,-0.20
2018-12-26T23:21:43.269Z,-0.20
2018-12-26T23:24:13.276Z,-0.20
2018-12-26T23:27:20.383Z,-0.30
2018-12-26T23:29:50.007Z,-0.30
2018-12-26T23:32:23.446Z,-0.30
2018-12-26T23:34:53.107Z,-0.30
2018-12-26T23:37:22.750Z,-0.40
2018-12-26T23:39:52.350Z,-0.40
2018-12-26T23:42:22.054Z,-0.50
2018-12-26T23:44:53.432Z,-0.60
2018-12-26T23:47:23.026Z,-0.50
2018-12-26T23:49:52.724Z,-0.50
2018-12-26T23:52:22.333Z,-0.50
2018-12-26T23:54:52.273Z,-0.50
2018-12-26T23:57:22.068Z,-0.50
2018-12-26T23:59:51.735Z,-0.60
